sensor_id;sensor_type;location;lat;lon;timestamp;P1;durP1;ratioP1;P2;durP2;ratioP2
12052;SDS011;6087;48.982;12.064;2022-08-19T00:01:34;15.85;;;14.25;;
12052;SDS011;6087;48.982;12.064;2022-08-19T00:04:04;14.52;;;13.13;;
12052;SDS011;6087;48.982;12.064;2022-08-19T00:06:33;14.52;;;13.13;;
12052;SDS011;6087;48.982;12.064;2022-08-19T00:09:02;15.27;;;13.85;;
12052;SDS011;6087;48.982;12.064;2022-08-19T00:11:29;16.58;;;15.07;;
12052;SDS011;6087;48.982;12.064;2022-08-19T00:13:58;17.50;;;15.80;;
12052;SDS011;6087;48.982;12.064;2022-08-19T00:16:25;16.17;;;14.63;;
12052;SDS011;6087;48.982;12.064;2022-08-19T00:18:53;16.50;;;14.52;;
12052;SDS011;6087;48.982;12.064;2022-08-19T00:21:21;16.30;;;14.70;;
12052;SDS011;6087;48.982;12.064;2022-08-19T00:23:48;15.95;;;14.25;;
12052;SDS011;6087;48.982;12.064;2022-08-19T00:26:15;16.75;;;14.98;;
12052;SDS011;6087;48.982;12.064;2022-08-19T00:28:42;16.75;;;15.15;;
12052;SDS011;6087;48.982;12.064;2022-08-19T00:31:11;16.55;;;14.85;;
12052;SDS011;6087;48.982;12.064;2022-08-19T00:33:37;17.15;;;15.43;;
12052;SDS011;6087;48.982;12.064;2022-08-19T00:36:06;16.85;;;15.25;;
12052;SDS011;6087;48.982;12.064;2022-08-19T00:38:34;16.38;;;14.90;;
12052;SDS011;6087;48.982;12.064;2022-08-19T00:41:01;16.25;;;14.75;;
12052;SDS011;6087;48.982;12.064;2022-08-19T00:43:28;16.33;;;14.88;;
12052;SDS011;6087;48.982;12.064;2022-08-19T00:45:55;17.75;;;16.13;;
12052;SDS011;6087;48.982;12.064;2022-08-19T00:48:23;17.00;;;15.27;;
12052;SDS011;6087;48.982;12.064;2022-08-19T00:50:50;15.13;;;13.65;;
12052;SDS011;6087;48.982;12.064;2022-08-19T00:53:20;16.08;;;14.38;;
12052;SDS011;6087;48.982;12.064;2022-08-19T00:55:50;16.50;;;14.90;;
12052;SDS011;6087;48.982;12.064;2022-08-19T00:58:19;16.27;;;14.57;;
12052;SDS011;6087;48.982;12.064;2022-08-19T01:00:48;15.68;;;14.23;;
12052;SDS011;6087;48.982;12.064;2022-08-19T01:03:17;15.27;;;13.88;;
12052;SDS011;6087;48.982;12.064;2022-08-19T01:05:47;15.32;;;13.93;;
12052;SDS011;6087;48.982;12.064;2022-08-19T01:08:17;17.13;;;15.38;;
12052;SDS011;6087;48.982;12.064;2022-08-19T01:10:46;16.05;;;14.60;;
12052;SDS011;6087;48.982;12.064;2022-08-19T01:13:17;16.48;;;14.77;;
12052;SDS011;6087;48.982;12.064;2022-08-19T01:15:47;15.55;;;14.02;;
12052;SDS011;6087;48.982;12.064;2022-08-19T01:18:18;16.25;;;14.68;;
12052;SDS011;6087;48.982;12.064;2022-08-19T01:20:48;16.65;;;15.05;;
12052;SDS011;6087;48.982;12.064;2022-08-19T01:23:16;16.15;;;14.63;;
12052;SDS011;6087;48.982;12.064;2022-08-19T01:25:47;16.60;;;15.05;;
12052;SDS011;6087;48.982;12.064;2022-08-19T01:28:22;17.40;;;15.57;;
12052;SDS011;6087;48.982;12.064;2022-08-19T01:30:51;18.20;;;16.45;;
12052;SDS011;6087;48.982;12.064;2022-08-19T01:33:19;16.80;;;15.20;;
12052;SDS011;6087;48.982;12.064;2022-08-19T01:35:47;17.15;;;15.35;;
12052;SDS011;6087;48.982;12.064;2022-08-19T01:38:24;16.45;;;14.75;;
12052;SDS011;6087;48.982;12.064;2022-08-19T01:40:57;16.95;;;15.25;;
12052;SDS011;6087;48.982;12.064;2022-08-19T01:43:24;16.75;;;15.05;;
12052;SDS011;6087;48.982;12.064;2022-08-19T01:45:51;18.17;;;16.48;;
12052;SDS011;6087;48.982;12.064;2022-08-19T01:48:18;16.58;;;14.82;;
12052;SDS011;6087;48.982;12.064;2022-08-19T01:50:45;17.70;;;16.08;;
12052;SDS011;6087;48.982;12.064;2022-08-19T01:53:13;16.80;;;15.20;;
12052;SDS011;6087;48.982;12.064;2022-08-19T01:55:42;16.50;;;14.93;;
12052;SDS011;6087;48.982;12.064;2022-08-19T01:58:11;16.63;;;15.05;;
12052;SDS011;6087;48.982;12.064;2022-08-19T02:00:40;17.48;;;15.82;;
12052;SDS011;6087;48.982;12.064;2022-08-19T02:03:08;15.95;;;14.50;;
12052;SDS011;6087;48.982;12.064;2022-08-19T02:05:36;17.83;;;16.02;;
12052;SDS011;6087;48.982;12.064;2022-08-19T02:08:04;17.20;;;15.50;;
12052;SDS011;6087;48.982;12.064;2022-08-19T02:10:31;17.52;;;15.82;;
12052;SDS011;6087;48.982;12.064;2022-08-19T02:12:59;18.73;;;16.83;;
12052;SDS011;6087;48.982;12.064;2022-08-19T02:15:26;18.27;;;16.58;;
12052;SDS011;6087;48.982;12.064;2022-08-19T02:17:53;19.20;;;17.27;;
12052;SDS011;6087;48.982;12.064;2022-08-19T02:20:20;17.88;;;16.08;;
12052;SDS011;6087;48.982;12.064;2022-08-19T02:22:47;17.90;;;16.25;;
12052;SDS011;6087;48.982;12.064;2022-08-19T02:25:14;18.83;;;17.13;;
12052;SDS011;6087;48.982;12.064;2022-08-19T02:27:41;18.13;;;16.42;;
12052;SDS011;6087;48.982;12.064;2022-08-19T02:30:12;17.63;;;15.93;;
12052;SDS011;6087;48.982;12.064;2022-08-19T02:32:42;17.30;;;15.60;;
12052;SDS011;6087;48.982;12.064;2022-08-19T02:35:09;18.77;;;16.80;;
12052;SDS011;6087;48.982;12.064;2022-08-19T02:37:36;17.48;;;15.90;;
12052;SDS011;6087;48.982;12.064;2022-08-19T02:40:21;17.70;;;15.93;;
12052;SDS011;6087;48.982;12.064;2022-08-19T02:42:48;17.23;;;15.63;;
12052;SDS011;6087;48.982;12.064;2022-08-19T02:45:17;17.20;;;15.38;;
12052;SDS011;6087;48.982;12.064;2022-08-19T02:47:43;16.75;;;15.15;;
12052;SDS011;6087;48.982;12.064;2022-08-19T02:50:10;17.15;;;15.52;;
12052;SDS011;6087;48.982;12.064;2022-08-19T02:52:37;15.98;;;14.57;;
12052;SDS011;6087;48.982;12.064;2022-08-19T02:55:05;18.63;;;16.77;;
12052;SDS011;6087;48.982;12.064;2022-08-19T02:57:32;16.33;;;14.82;;
12052;SDS011;6087;48.982;12.064;2022-08-19T03:00:00;16.65;;;15.15;;
12052;SDS011;6087;48.982;12.064;2022-08-19T03:02:31;18.05;;;16.23;;
12052;SDS011;6087;48.982;12.064;2022-08-19T03:04:58;18.05;;;15.50;;
12052;SDS011;6087;48.982;12.064;2022-08-19T03:07:26;16.58;;;15.07;;
12052;SDS011;6087;48.982;12.064;2022-08-19T03:09:53;16.52;;;14.80;;
12052;SDS011;6087;48.982;12.064;2022-08-19T03:12:20;16.70;;;15.02;;
12052;SDS011;6087;48.982;12.064;2022-08-19T03:14:47;17.42;;;15.82;;
12052;SDS011;6087;48.982;12.064;2022-08-19T03:17:14;18.25;;;16.42;;
12052;SDS011;6087;48.982;12.064;2022-08-19T03:19:42;16.75;;;15.25;;
12052;SDS011;6087;48.982;12.064;2022-08-19T03:22:09;16.92;;;15.18;;
12052;SDS011;6087;48.982;12.064;2022-08-19T03:24:36;18.20;;;16.50;;
12052;SDS011;6087;48.982;12.064;2022-08-19T03:27:03;16.27;;;14.68;;
12052;SDS011;6087;48.982;12.064;2022-08-19T03:29:31;17.10;;;15.57;;
12052;SDS011;6087;48.982;12.064;2022-08-19T03:31:58;17.83;;;16.13;;
12052;SDS011;6087;48.982;12.064;2022-08-19T03:34:27;17.75;;;15.95;;
12052;SDS011;6087;48.982;12.064;2022-08-19T03:36:58;17.27;;;15.65;;
12052;SDS011;6087;48.982;12.064;2022-08-19T03:39:30;16.13;;;14.63;;
12052;SDS011;6087;48.982;12.064;2022-08-19T03:41:57;17.10;;;15.43;;
12052;SDS011;6087;48.982;12.064;2022-08-19T03:44:28;16.90;;;15.27;;
12052;SDS011;6087;48.982;12.064;2022-08-19T03:46:57;16.10;;;14.50;;
12052;SDS011;6087;48.982;12.064;2022-08-19T03:49:26;17.73;;;15.80;;
12052;SDS011;6087;48.982;12.064;2022-08-19T03:51:54;16.15;;;14.65;;
12052;SDS011;6087;48.982;12.064;2022-08-19T03:54:25;16.52;;;15.07;;
12052;SDS011;6087;48.982;12.064;2022-08-19T03:56:53;17.38;;;15.68;;
12052;SDS011;6087;48.982;12.064;2022-08-19T03:59:23;16.95;;;15.23;;
12052;SDS011;6087;48.982;12.064;2022-08-19T04:01:51;16.02;;;14.52;;
12052;SDS011;6087;48.982;12.064;2022-08-19T04:04:18;16.75;;;15.13;;
12052;SDS011;6087;48.982;12.064;2022-08-19T04:06:46;15.77;;;14.27;;
12052;SDS011;6087;48.982;12.064;2022-08-19T04:09:14;16.83;;;15.18;;
12052;SDS011;6087;48.982;12.064;2022-08-19T04:11:43;16.75;;;15.05;;
12052;SDS011;6087;48.982;12.064;2022-08-19T04:14:12;16.83;;;15.23;;
12052;SDS011;6087;48.982;12.064;2022-08-19T04:16:41;16.33;;;14.63;;
12052;SDS011;6087;48.982;12.064;2022-08-19T04:19:09;16.92;;;15.32;;
12052;SDS011;6087;48.982;12.064;2022-08-19T04:21:37;16.63;;;14.80;;
12052;SDS011;6087;48.982;12.064;2022-08-19T04:24:05;16.98;;;15.35;;
12052;SDS011;6087;48.982;12.064;2022-08-19T04:26:35;16.58;;;14.98;;
12052;SDS011;6087;48.982;12.064;2022-08-19T04:29:04;16.67;;;15.02;;
12052;SDS011;6087;48.982;12.064;2022-08-19T04:31:33;17.13;;;15.35;;
12052;SDS011;6087;48.982;12.064;2022-08-19T04:34:00;15.90;;;14.48;;
12052;SDS011;6087;48.982;12.064;2022-08-19T04:36:29;14.95;;;13.57;;
12052;SDS011;6087;48.982;12.064;2022-08-19T04:38:58;15.85;;;14.32;;
12052;SDS011;6087;48.982;12.064;2022-08-19T04:41:26;15.32;;;13.88;;
12052;SDS011;6087;48.982;12.064;2022-08-19T04:44:12;14.55;;;13.25;;
12052;SDS011;6087;48.982;12.064;2022-08-19T04:46:43;17.08;;;15.30;;
12052;SDS011;6087;48.982;12.064;2022-08-19T04:49:10;15.70;;;14.20;;
12052;SDS011;6087;48.982;12.064;2022-08-19T04:51:39;16.60;;;14.98;;
12052;SDS011;6087;48.982;12.064;2022-08-19T04:54:07;17.40;;;14.60;;
12052;SDS011;6087;48.982;12.064;2022-08-19T04:56:34;16.33;;;14.65;;
12052;SDS011;6087;48.982;12.064;2022-08-19T04:59:01;17.17;;;15.48;;
12052;SDS011;6087;48.982;12.064;2022-08-19T05:01:31;16.35;;;14.75;;
12052;SDS011;6087;48.982;12.064;2022-08-19T05:04:00;16.42;;;14.88;;
12052;SDS011;6087;48.982;12.064;2022-08-19T05:06:29;17.30;;;15.60;;
12052;SDS011;6087;48.982;12.064;2022-08-19T05:08:58;17.88;;;16.13;;
12052;SDS011;6087;48.982;12.064;2022-08-19T05:11:26;16.55;;;15.10;;
12052;SDS011;6087;48.982;12.064;2022-08-19T05:13:54;17.73;;;16.02;;
12052;SDS011;6087;48.982;12.064;2022-08-19T05:16:22;16.48;;;14.95;;
12052;SDS011;6087;48.982;12.064;2022-08-19T05:18:52;17.45;;;15.65;;
12052;SDS011;6087;48.982;12.064;2022-08-19T05:21:38;16.15;;;14.65;;
12052;SDS011;6087;48.982;12.064;2022-08-19T05:24:23;16.65;;;14.75;;
12052;SDS011;6087;48.982;12.064;2022-08-19T05:26:51;16.98;;;15.48;;
12052;SDS011;6087;48.982;12.064;2022-08-19T05:29:21;16.65;;;15.00;;
12052;SDS011;6087;48.982;12.064;2022-08-19T05:31:49;16.13;;;14.40;;
12052;SDS011;6087;48.982;12.064;2022-08-19T05:34:19;15.85;;;14.25;;
12052;SDS011;6087;48.982;12.064;2022-08-19T05:36:49;16.02;;;14.27;;
12052;SDS011;6087;48.982;12.064;2022-08-19T05:39:22;14.95;;;13.45;;
12052;SDS011;6087;48.982;12.064;2022-08-19T05:41:50;16.00;;;14.50;;
12052;SDS011;6087;48.982;12.064;2022-08-19T05:44:19;16.98;;;15.38;;
12052;SDS011;6087;48.982;12.064;2022-08-19T05:46:47;15.73;;;14.27;;
12052;SDS011;6087;48.982;12.064;2022-08-19T05:49:19;16.95;;;15.15;;
12052;SDS011;6087;48.982;12.064;2022-08-19T05:51:48;16.17;;;14.65;;
12052;SDS011;6087;48.982;12.064;2022-08-19T05:54:15;15.70;;;14.27;;
12052;SDS011;6087;48.982;12.064;2022-08-19T05:56:43;15.73;;;14.23;;
12052;SDS011;6087;48.982;12.064;2022-08-19T05:59:12;16.20;;;14.60;;
12052;SDS011;6087;48.982;12.064;2022-08-19T06:01:42;15.70;;;14.20;;
12052;SDS011;6087;48.982;12.064;2022-08-19T06:04:11;14.90;;;13.45;;
12052;SDS011;6087;48.982;12.064;2022-08-19T06:06:40;14.88;;;13.43;;
12052;SDS011;6087;48.982;12.064;2022-08-19T06:09:08;15.65;;;14.25;;
12052;SDS011;6087;48.982;12.064;2022-08-19T06:11:37;14.55;;;12.73;;
12052;SDS011;6087;48.982;12.064;2022-08-19T06:14:06;15.30;;;13.75;;
12052;SDS011;6087;48.982;12.064;2022-08-19T06:16:34;14.18;;;12.93;;
12052;SDS011;6087;48.982;12.064;2022-08-19T06:19:04;13.85;;;12.55;;
12052;SDS011;6087;48.982;12.064;2022-08-19T06:21:33;13.35;;;12.10;;
12052;SDS011;6087;48.982;12.064;2022-08-19T06:24:04;16.23;;;14.57;;
12052;SDS011;6087;48.982;12.064;2022-08-19T06:26:33;15.10;;;13.55;;
12052;SDS011;6087;48.982;12.064;2022-08-19T06:29:01;14.70;;;13.30;;
12052;SDS011;6087;48.982;12.064;2022-08-19T06:31:28;13.60;;;12.32;;
12052;SDS011;6087;48.982;12.064;2022-08-19T06:33:59;13.63;;;12.43;;
12052;SDS011;6087;48.982;12.064;2022-08-19T06:36:28;13.02;;;11.73;;
12052;SDS011;6087;48.982;12.064;2022-08-19T06:38:59;12.70;;;11.50;;
12052;SDS011;6087;48.982;12.064;2022-08-19T06:41:28;12.23;;;11.10;;
12052;SDS011;6087;48.982;12.064;2022-08-19T06:43:56;13.27;;;11.98;;
12052;SDS011;6087;48.982;12.064;2022-08-19T06:46:23;14.00;;;12.60;;
12052;SDS011;6087;48.982;12.064;2022-08-19T06:48:51;14.18;;;12.40;;
12052;SDS011;6087;48.982;12.064;2022-08-19T06:51:19;14.07;;;12.75;;
12052;SDS011;6087;48.982;12.064;2022-08-19T06:53:49;13.32;;;12.13;;
12052;SDS011;6087;48.982;12.064;2022-08-19T06:56:17;15.00;;;13.45;;
12052;SDS011;6087;48.982;12.064;2022-08-19T06:58:47;16.00;;;14.40;;
12052;SDS011;6087;48.982;12.064;2022-08-19T07:01:17;14.32;;;12.82;;
12052;SDS011;6087;48.982;12.064;2022-08-19T07:03:45;14.35;;;12.57;;
12052;SDS011;6087;48.982;12.064;2022-08-19T07:06:13;13.18;;;11.57;;
12052;SDS011;6087;48.982;12.064;2022-08-19T07:08:42;14.70;;;13.30;;
12052;SDS011;6087;48.982;12.064;2022-08-19T07:11:10;15.75;;;13.45;;
12052;SDS011;6087;48.982;12.064;2022-08-19T07:13:39;15.25;;;13.73;;
12052;SDS011;6087;48.982;12.064;2022-08-19T07:16:11;15.18;;;13.68;;
12052;SDS011;6087;48.982;12.064;2022-08-19T07:18:39;15.43;;;13.82;;
12052;SDS011;6087;48.982;12.064;2022-08-19T07:21:07;16.35;;;14.60;;
12052;SDS011;6087;48.982;12.064;2022-08-19T07:23:36;15.50;;;14.00;;
12052;SDS011;6087;48.982;12.064;2022-08-19T07:35:17;16.52;;;14.93;;
12052;SDS011;6087;48.982;12.064;2022-08-19T07:37:45;14.50;;;13.10;;
12052;SDS011;6087;48.982;12.064;2022-08-19T07:40:12;16.70;;;15.20;;
12052;SDS011;6087;48.982;12.064;2022-08-19T07:42:39;16.63;;;15.07;;
12052;SDS011;6087;48.982;12.064;2022-08-19T07:45:08;17.02;;;15.23;;
12052;SDS011;6087;48.982;12.064;2022-08-19T07:47:35;20.23;;;14.40;;
12052;SDS011;6087;48.982;12.064;2022-08-19T07:50:04;16.20;;;14.55;;
12052;SDS011;6087;48.982;12.064;2022-08-19T07:52:34;15.77;;;14.18;;
12052;SDS011;6087;48.982;12.064;2022-08-19T07:55:03;15.70;;;13.77;;
12052;SDS011;6087;48.982;12.064;2022-08-19T07:57:31;16.08;;;14.15;;
12052;SDS011;6087;48.982;12.064;2022-08-19T07:59:58;15.48;;;13.20;;
12052;SDS011;6087;48.982;12.064;2022-08-19T08:02:25;14.25;;;12.88;;
12052;SDS011;6087;48.982;12.064;2022-08-19T08:04:52;14.48;;;13.07;;
12052;SDS011;6087;48.982;12.064;2022-08-19T08:07:37;13.70;;;12.40;;
12052;SDS011;6087;48.982;12.064;2022-08-19T08:10:22;14.65;;;13.15;;
12052;SDS011;6087;48.982;12.064;2022-08-19T08:12:49;14.10;;;12.80;;
12052;SDS011;6087;48.982;12.064;2022-08-19T08:15:16;12.65;;;11.48;;
12052;SDS011;6087;48.982;12.064;2022-08-19T08:17:43;13.45;;;12.15;;
12052;SDS011;6087;48.982;12.064;2022-08-19T08:20:11;19.27;;;13.48;;
12052;SDS011;6087;48.982;12.064;2022-08-19T08:22:43;14.02;;;12.60;;
12052;SDS011;6087;48.982;12.064;2022-08-19T08:25:28;14.82;;;13.40;;
12052;SDS011;6087;48.982;12.064;2022-08-19T08:27:56;16.70;;;15.00;;
12052;SDS011;6087;48.982;12.064;2022-08-19T08:30:25;16.52;;;15.02;;
12052;SDS011;6087;48.982;12.064;2022-08-19T08:32:53;15.80;;;13.18;;
12052;SDS011;6087;48.982;12.064;2022-08-19T08:35:22;15.27;;;13.73;;
12052;SDS011;6087;48.982;12.064;2022-08-19T08:37:52;14.60;;;13.20;;
12052;SDS011;6087;48.982;12.064;2022-08-19T08:40:21;16.88;;;15.10;;
12052;SDS011;6087;48.982;12.064;2022-08-19T08:42:55;16.70;;;15.00;;
12052;SDS011;6087;48.982;12.064;2022-08-19T08:45:27;17.75;;;14.75;;
12052;SDS011;6087;48.982;12.064;2022-08-19T08:47:56;17.08;;;15.45;;
12052;SDS011;6087;48.982;12.064;2022-08-19T08:50:28;17.33;;;15.57;;
12052;SDS011;6087;48.982;12.064;2022-08-19T08:53:02;16.80;;;15.15;;
12052;SDS011;6087;48.982;12.064;2022-08-19T08:55:31;16.40;;;14.70;;
12052;SDS011;6087;48.982;12.064;2022-08-19T08:58:00;16.13;;;14.63;;
12052;SDS011;6087;48.982;12.064;2022-08-19T09:00:31;15.85;;;14.20;;
12052;SDS011;6087;48.982;12.064;2022-08-19T09:03:00;16.25;;;14.75;;
12052;SDS011;6087;48.982;12.064;2022-08-19T09:05:33;15.43;;;12.55;;
12052;SDS011;6087;48.982;12.064;2022-08-19T09:08:13;13.52;;;12.40;;
12052;SDS011;6087;48.982;12.064;2022-08-19T09:10:49;14.02;;;12.63;;
12052;SDS011;6087;48.982;12.064;2022-08-19T09:13:21;12.55;;;11.25;;
12052;SDS011;6087;48.982;12.064;2022-08-19T09:15:56;13.80;;;11.60;;
12052;SDS011;6087;48.982;12.064;2022-08-19T09:18:36;11.65;;;10.55;;
12052;SDS011;6087;48.982;12.064;2022-08-19T09:21:05;12.45;;;11.02;;
12052;SDS011;6087;48.982;12.064;2022-08-19T09:23:34;13.07;;;11.70;;
12052;SDS011;6087;48.982;12.064;2022-08-19T09:26:01;12.13;;;10.82;;
12052;SDS011;6087;48.982;12.064;2022-08-19T09:28:32;11.43;;;10.43;;
12052;SDS011;6087;48.982;12.064;2022-08-19T09:30:59;12.15;;;10.98;;
12052;SDS011;6087;48.982;12.064;2022-08-19T09:33:26;12.02;;;10.88;;
12052;SDS011;6087;48.982;12.064;2022-08-19T09:36:00;12.43;;;11.10;;
12052;SDS011;6087;48.982;12.064;2022-08-19T09:38:29;12.48;;;11.38;;
12052;SDS011;6087;48.982;12.064;2022-08-19T09:41:01;12.98;;;11.68;;
12052;SDS011;6087;48.982;12.064;2022-08-19T09:43:29;12.48;;;11.20;;
12052;SDS011;6087;48.982;12.064;2022-08-19T09:45:57;12.15;;;11.00;;
12052;SDS011;6087;48.982;12.064;2022-08-19T09:48:25;12.90;;;11.70;;
12052;SDS011;6087;48.982;12.064;2022-08-19T09:50:52;11.93;;;10.73;;
12052;SDS011;6087;48.982;12.064;2022-08-19T09:53:19;13.48;;;12.18;;
12052;SDS011;6087;48.982;12.064;2022-08-19T09:55:47;13.07;;;11.73;;
12052;SDS011;6087;48.982;12.064;2022-08-19T09:58:15;12.70;;;11.50;;
12052;SDS011;6087;48.982;12.064;2022-08-19T10:00:42;12.48;;;10.85;;
12052;SDS011;6087;48.982;12.064;2022-08-19T10:03:10;13.30;;;12.00;;
12052;SDS011;6087;48.982;12.064;2022-08-19T10:05:37;13.10;;;11.80;;
12052;SDS011;6087;48.982;12.064;2022-08-19T10:08:17;12.32;;;11.13;;
12052;SDS011;6087;48.982;12.064;2022-08-19T10:10:46;14.23;;;11.48;;
12052;SDS011;6087;48.982;12.064;2022-08-19T10:13:14;13.50;;;11.77;;
12052;SDS011;6087;48.982;12.064;2022-08-19T10:15:50;12.57;;;11.25;;
12052;SDS011;6087;48.982;12.064;2022-08-19T10:18:18;11.38;;;10.15;;
12052;SDS011;6087;48.982;12.064;2022-08-19T10:20:47;13.80;;;11.60;;
12052;SDS011;6087;48.982;12.064;2022-08-19T10:23:15;12.70;;;11.45;;
12052;SDS011;6087;48.982;12.064;2022-08-19T10:25:43;12.63;;;11.32;;
12052;SDS011;6087;48.982;12.064;2022-08-19T10:28:10;11.23;;;10.23;;
12052;SDS011;6087;48.982;12.064;2022-08-19T10:30:39;11.43;;;10.32;;
12052;SDS011;6087;48.982;12.064;2022-08-19T10:33:06;12.70;;;10.13;;
12052;SDS011;6087;48.982;12.064;2022-08-19T10:35:33;11.23;;;10.10;;
12052;SDS011;6087;48.982;12.064;2022-08-19T10:38:02;10.55;;;9.65;;
12052;SDS011;6087;48.982;12.064;2022-08-19T10:40:29;11.10;;;10.00;;
12052;SDS011;6087;48.982;12.064;2022-08-19T10:42:56;11.07;;;10.07;;
12052;SDS011;6087;48.982;12.064;2022-08-19T10:45:23;10.95;;;9.77;;
12052;SDS011;6087;48.982;12.064;2022-08-19T10:47:52;11.23;;;10.02;;
12052;SDS011;6087;48.982;12.064;2022-08-19T10:50:19;10.82;;;9.85;;
12052;SDS011;6087;48.982;12.064;2022-08-19T10:53:04;10.57;;;9.48;;
12052;SDS011;6087;48.982;12.064;2022-08-19T10:55:34;10.13;;;9.23;;
12052;SDS011;6087;48.982;12.064;2022-08-19T10:58:19;12.68;;;10.13;;
12052;SDS011;6087;48.982;12.064;2022-08-19T11:00:50;10.32;;;9.38;;
12052;SDS011;6087;48.982;12.064;2022-08-19T11:03:19;11.02;;;10.02;;
12052;SDS011;6087;48.982;12.064;2022-08-19T11:05:46;10.55;;;9.60;;
12052;SDS011;6087;48.982;12.064;2022-08-19T11:08:22;12.63;;;10.73;;
12052;SDS011;6087;48.982;12.064;2022-08-19T11:10:52;12.07;;;10.32;;
12052;SDS011;6087;48.982;12.064;2022-08-19T11:13:21;12.13;;;10.93;;
12052;SDS011;6087;48.982;12.064;2022-08-19T11:15:55;12.27;;;11.18;;
12052;SDS011;6087;48.982;12.064;2022-08-19T11:18:24;12.40;;;10.98;;
12052;SDS011;6087;48.982;12.064;2022-08-19T11:20:51;12.43;;;11.13;;
12052;SDS011;6087;48.982;12.064;2022-08-19T11:23:18;11.77;;;10.70;;
12052;SDS011;6087;48.982;12.064;2022-08-19T11:25:45;11.65;;;10.55;;
12052;SDS011;6087;48.982;12.064;2022-08-19T11:28:12;11.70;;;10.70;;
12052;SDS011;6087;48.982;12.064;2022-08-19T11:30:40;15.07;;;13.40;;
12052;SDS011;6087;48.982;12.064;2022-08-19T11:33:07;14.13;;;12.82;;
12052;SDS011;6087;48.982;12.064;2022-08-19T11:35:39;15.10;;;13.52;;
12052;SDS011;6087;48.982;12.064;2022-08-19T11:38:06;15.73;;;14.02;;
12052;SDS011;6087;48.982;12.064;2022-08-19T11:40:33;15.95;;;14.23;;
12052;SDS011;6087;48.982;12.064;2022-08-19T11:43:00;15.35;;;13.85;;
12052;SDS011;6087;48.982;12.064;2022-08-19T11:45:27;18.42;;;14.82;;
12052;SDS011;6087;48.982;12.064;2022-08-19T11:47:54;18.63;;;14.52;;
12052;SDS011;6087;48.982;12.064;2022-08-19T11:50:22;16.23;;;14.40;;
12052;SDS011;6087;48.982;12.064;2022-08-19T11:52:54;17.58;;;15.88;;
12052;SDS011;6087;48.982;12.064;2022-08-19T11:55:21;18.25;;;16.45;;
12052;SDS011;6087;48.982;12.064;2022-08-19T11:58:32;17.90;;;15.85;;
12052;SDS011;6087;48.982;12.064;2022-08-19T12:01:00;17.73;;;15.75;;
12052;SDS011;6087;48.982;12.064;2022-08-19T12:03:27;20.15;;;17.05;;
12052;SDS011;6087;48.982;12.064;2022-08-19T12:05:54;21.45;;;15.52;;
12052;SDS011;6087;48.982;12.064;2022-08-19T12:08:23;18.15;;;16.05;;
12052;SDS011;6087;48.982;12.064;2022-08-19T12:10:49;21.27;;;16.65;;
12052;SDS011;6087;48.982;12.064;2022-08-19T12:13:16;17.77;;;14.02;;
12052;SDS011;6087;48.982;12.064;2022-08-19T12:15:44;14.98;;;13.57;;
12052;SDS011;6087;48.982;12.064;2022-08-19T12:18:12;17.13;;;15.35;;
12052;SDS011;6087;48.982;12.064;2022-08-19T12:20:40;16.30;;;14.60;;
12052;SDS011;6087;48.982;12.064;2022-08-19T12:23:09;16.63;;;15.05;;
12052;SDS011;6087;48.982;12.064;2022-08-19T12:25:42;16.80;;;15.18;;
12052;SDS011;6087;48.982;12.064;2022-08-19T12:28:17;18.88;;;14.98;;
12052;SDS011;6087;48.982;12.064;2022-08-19T12:30:44;16.13;;;14.52;;
12052;SDS011;6087;48.982;12.064;2022-08-19T12:33:11;16.95;;;15.07;;
12052;SDS011;6087;48.982;12.064;2022-08-19T12:35:39;17.02;;;15.38;;
12052;SDS011;6087;48.982;12.064;2022-08-19T12:38:07;15.73;;;14.02;;
12052;SDS011;6087;48.982;12.064;2022-08-19T12:40:34;16.35;;;14.75;;
12052;SDS011;6087;48.982;12.064;2022-08-19T12:43:02;17.75;;;15.95;;
12052;SDS011;6087;48.982;12.064;2022-08-19T12:45:29;15.55;;;13.98;;
12052;SDS011;6087;48.982;12.064;2022-08-19T12:47:56;15.80;;;14.07;;
12052;SDS011;6087;48.982;12.064;2022-08-19T12:50:23;17.23;;;15.43;;
12052;SDS011;6087;48.982;12.064;2022-08-19T12:52:50;17.25;;;15.55;;
12052;SDS011;6087;48.982;12.064;2022-08-19T12:55:17;17.30;;;15.60;;
12052;SDS011;6087;48.982;12.064;2022-08-19T12:57:44;16.40;;;14.70;;
12052;SDS011;6087;48.982;12.064;2022-08-19T13:00:15;17.40;;;15.60;;
12052;SDS011;6087;48.982;12.064;2022-08-19T13:02:46;18.13;;;16.23;;
12052;SDS011;6087;48.982;12.064;2022-08-19T13:05:15;17.45;;;15.48;;
12052;SDS011;6087;48.982;12.064;2022-08-19T13:07:45;17.67;;;15.88;;
12052;SDS011;6087;48.982;12.064;2022-08-19T13:10:14;17.50;;;15.73;;
12052;SDS011;6087;48.982;12.064;2022-08-19T13:12:43;19.38;;;16.10;;
12052;SDS011;6087;48.982;12.064;2022-08-19T13:15:10;18.85;;;16.05;;
12052;SDS011;6087;48.982;12.064;2022-08-19T13:17:39;16.67;;;15.07;;
12052;SDS011;6087;48.982;12.064;2022-08-19T13:20:06;17.48;;;15.77;;
12052;SDS011;6087;48.982;12.064;2022-08-19T13:22:34;15.50;;;13.70;;
12052;SDS011;6087;48.982;12.064;2022-08-19T13:25:01;17.52;;;15.30;;
12052;SDS011;6087;48.982;12.064;2022-08-19T13:27:28;15.65;;;14.10;;
12052;SDS011;6087;48.982;12.064;2022-08-19T13:29:55;16.58;;;14.45;;
12052;SDS011;6087;48.982;12.064;2022-08-19T13:32:41;15.57;;;14.07;;
12052;SDS011;6087;48.982;12.064;2022-08-19T13:35:27;17.13;;;15.18;;
12052;SDS011;6087;48.982;12.064;2022-08-19T13:37:54;17.67;;;15.88;;
12052;SDS011;6087;48.982;12.064;2022-08-19T13:40:22;16.30;;;14.77;;
12052;SDS011;6087;48.982;12.064;2022-08-19T13:42:52;15.73;;;14.13;;
12052;SDS011;6087;48.982;12.064;2022-08-19T13:45:22;15.68;;;13.75;;
12052;SDS011;6087;48.982;12.064;2022-08-19T13:47:52;16.08;;;14.57;;
12052;SDS011;6087;48.982;12.064;2022-08-19T13:50:21;14.55;;;13.07;;
12052;SDS011;6087;48.982;12.064;2022-08-19T13:52:51;14.68;;;12.90;;
12052;SDS011;6087;48.982;12.064;2022-08-19T13:55:19;14.63;;;13.25;;
12052;SDS011;6087;48.982;12.064;2022-08-19T13:57:49;13.98;;;12.55;;
12052;SDS011;6087;48.982;12.064;2022-08-19T14:00:17;15.10;;;12.40;;
12052;SDS011;6087;48.982;12.064;2022-08-19T14:02:45;14.05;;;12.55;;
12052;SDS011;6087;48.982;12.064;2022-08-19T14:05:14;14.07;;;12.60;;
12052;SDS011;6087;48.982;12.064;2022-08-19T14:07:42;14.45;;;13.15;;
12052;SDS011;6087;48.982;12.064;2022-08-19T14:10:10;14.30;;;12.80;;
12052;SDS011;6087;48.982;12.064;2022-08-19T14:12:38;14.35;;;13.00;;
12052;SDS011;6087;48.982;12.064;2022-08-19T14:15:06;13.18;;;11.88;;
12052;SDS011;6087;48.982;12.064;2022-08-19T14:17:37;14.82;;;13.35;;
12052;SDS011;6087;48.982;12.064;2022-08-19T14:20:05;14.80;;;13.50;;
12052;SDS011;6087;48.982;12.064;2022-08-19T14:22:35;14.10;;;12.68;;
12052;SDS011;6087;48.982;12.064;2022-08-19T14:25:04;14.35;;;13.02;;
12052;SDS011;6087;48.982;12.064;2022-08-19T14:27:32;14.45;;;13.00;;
12052;SDS011;6087;48.982;12.064;2022-08-19T14:29:59;15.57;;;14.00;;
12052;SDS011;6087;48.982;12.064;2022-08-19T14:32:26;15.77;;;14.18;;
12052;SDS011;6087;48.982;12.064;2022-08-19T14:34:53;16.08;;;14.57;;
12052;SDS011;6087;48.982;12.064;2022-08-19T14:37:20;17.50;;;15.80;;
12052;SDS011;6087;48.982;12.064;2022-08-19T14:39:49;17.23;;;15.43;;
12052;SDS011;6087;48.982;12.064;2022-08-19T14:42:16;19.02;;;17.13;;